sensor_id;sensor_type;location;lat;lon;timestamp;pressure;altitude;pressure_sealevel;temperature;humidity
80149;BME280;69473;42.426;26.644;2023-05-29T00:00:32;98585.47;;;17.14;71.89
80149;BME280;69473;42.426;26.644;2023-05-29T00:02:58;98582.25;;;17.05;71.89
80149;BME280;69473;42.426;26.644;2023-05-29T00:05:24;98592.09;;;16.99;72.58
80149;BME280;69473;42.426;26.644;2023-05-29T00:07:49;98585.16;;;16.98;72.49
80149;BME280;69473;42.426;26.644;2023-05-29T00:10:16;98587.69;;;16.99;72.29
80149;BME280;69473;42.426;26.644;2023-05-29T00:12:42;98593.56;;;17.06;72.16
80149;BME280;69473;42.426;26.644;2023-05-29T00:15:08;98591.00;;;17.04;71.78
80149;BME280;69473;42.426;26.644;2023-05-29T00:17:35;98595.25;;;17.07;71.78
80149;BME280;69473;42.426;26.644;2023-05-29T00:20:02;98586.63;;;17.05;72.21
80149;BME280;69473;42.426;26.644;2023-05-29T00:22:37;98597.94;;;17.05;71.55
80149;BME280;69473;42.426;26.644;2023-05-29T00:25:06;98608.31;;;17.08;71.53
80149;BME280;69473;42.426;26.644;2023-05-29T00:27:32;98605.28;;;17.19;71.49
80149;BME280;69473;42.426;26.644;2023-05-29T00:29:59;98605.28;;;17.19;71.85
80149;BME280;69473;42.426;26.644;2023-05-29T00:32:24;98600.28;;;17.13;71.96
80149;BME280;69473;42.426;26.644;2023-05-29T00:34:51;98601.28;;;17.11;71.35
80149;BME280;69473;42.426;26.644;2023-05-29T00:37:17;98604.25;;;17.00;72.94
80149;BME280;69473;42.426;26.644;2023-05-29T00:39:42;98599.00;;;17.00;72.15
80149;BME280;69473;42.426;26.644;2023-05-29T00:42:08;98604.13;;;17.03;71.59
80149;BME280;69473;42.426;26.644;2023-05-29T00:44:34;98605.72;;;17.07;72.14
80149;BME280;69473;42.426;26.644;2023-05-29T00:47:01;98597.22;;;17.02;72.40
80149;BME280;69473;42.426;26.644;2023-05-29T00:49:27;98597.22;;;17.02;72.63
80149;BME280;69473;42.426;26.644;2023-05-29T00:51:54;98600.75;;;17.01;71.56
80149;BME280;69473;42.426;26.644;2023-05-29T00:54:26;98589.78;;;16.90;72.54
80149;BME280;69473;42.426;26.644;2023-05-29T00:56:52;98597.94;;;17.05;72.05
80149;BME280;69473;42.426;26.644;2023-05-29T00:59:19;98599.13;;;16.97;72.04
80149;BME280;69473;42.426;26.644;2023-05-29T01:01:48;98591.88;;;16.80;72.58
80149;BME280;69473;42.426;26.644;2023-05-29T01:04:15;98589.47;;;16.72;72.87
80149;BME280;69473;42.426;26.644;2023-05-29T01:06:40;98594.75;;;16.71;72.89
80149;BME280;69473;42.426;26.644;2023-05-29T01:09:06;98595.50;;;16.74;73.58
80149;BME280;69473;42.426;26.644;2023-05-29T01:11:45;98592.19;;;16.69;73.46
80149;BME280;69473;42.426;26.644;2023-05-29T01:14:25;98589.47;;;16.72;73.26
80149;BME280;69473;42.426;26.644;2023-05-29T01:17:06;98594.63;;;16.75;73.32
80149;BME280;69473;42.426;26.644;2023-05-29T01:25:19;98584.06;;;16.78;72.53
80149;BME280;69473;42.426;26.644;2023-05-29T01:27:47;98578.25;;;16.69;73.71
80149;BME280;69473;42.426;26.644;2023-05-29T01:30:15;98584.22;;;16.72;73.57
80149;BME280;69473;42.426;26.644;2023-05-29T01:32:42;98586.44;;;16.86;72.51
80149;BME280;69473;42.426;26.644;2023-05-29T01:35:08;98585.88;;;16.76;72.65
80149;BME280;69473;42.426;26.644;2023-05-29T01:37:34;98582.25;;;16.80;72.58
80149;BME280;69473;42.426;26.644;2023-05-29T01:40:00;98576.34;;;16.74;72.11
80149;BME280;69473;42.426;26.644;2023-05-29T01:42:28;98590.91;;;16.82;72.38
80149;BME280;69473;42.426;26.644;2023-05-29T01:44:55;98582.03;;;16.87;72.23
80149;BME280;69473;42.426;26.644;2023-05-29T01:47:22;98587.28;;;16.87;72.58
80149;BME280;69473;42.426;26.644;2023-05-29T01:49:50;98585.69;;;16.82;72.64
80149;BME280;69473;42.426;26.644;2023-05-29T01:52:16;98585.56;;;16.85;72.24
80149;BME280;69473;42.426;26.644;2023-05-29T01:54:43;98590.91;;;16.82;71.85
80149;BME280;69473;42.426;26.644;2023-05-29T01:57:10;98585.81;;;16.78;72.69
80149;BME280;69473;42.426;26.644;2023-05-29T01:59:37;98589.19;;;16.81;72.51
80149;BME280;69473;42.426;26.644;2023-05-29T02:02:07;98586.00;;;16.98;71.33
80149;BME280;69473;42.426;26.644;2023-05-29T02:04:33;98591.56;;;16.89;71.41
80149;BME280;69473;42.426;26.644;2023-05-29T02:06:58;98599.44;;;16.88;71.26
80149;BME280;69473;42.426;26.644;2023-05-29T02:09:24;98601.47;;;16.79;71.46
80149;BME280;69473;42.426;26.644;2023-05-29T02:11:50;98598.91;;;16.78;72.57
80149;BME280;69473;42.426;26.644;2023-05-29T02:14:16;98599.16;;;16.70;72.21
80149;BME280;69473;42.426;26.644;2023-05-29T02:16:41;98599.84;;;16.75;71.98
80149;BME280;69473;42.426;26.644;2023-05-29T02:19:09;98605.09;;;16.75;71.86
80149;BME280;69473;42.426;26.644;2023-05-29T02:21:39;98608.41;;;16.80;71.74
80149;BME280;69473;42.426;26.644;2023-05-29T02:24:06;98612.84;;;16.78;72.24
80149;BME280;69473;42.426;26.644;2023-05-29T02:26:32;98610.22;;;16.78;71.62
80149;BME280;69473;42.426;26.644;2023-05-29T02:28:58;98606.50;;;16.85;71.22
80149;BME280;69473;42.426;26.644;2023-05-29T02:31:23;98602.97;;;16.87;72.18
80149;BME280;69473;42.426;26.644;2023-05-29T02:33:49;98597.19;;;16.77;72.37
80149;BME280;69473;42.426;26.644;2023-05-29T02:36:14;98603.47;;;16.71;71.59
80149;BME280;69473;42.426;26.644;2023-05-29T02:38:41;98597.47;;;16.68;72.22
80149;BME280;69473;42.426;26.644;2023-05-29T02:41:07;98600.03;;;16.69;72.76
80149;BME280;69473;42.426;26.644;2023-05-29T02:43:33;98601.03;;;16.67;72.15
80149;BME280;69473;42.426;26.644;2023-05-29T02:45:58;98602.53;;;16.72;72.52
80149;BME280;69473;42.426;26.644;2023-05-29T02:48:24;98606.81;;;16.76;71.85
80149;BME280;69473;42.426;26.644;2023-05-29T02:50:51;98596.63;;;16.67;72.63
80149;BME280;69473;42.426;26.644;2023-05-29T02:53:16;98601.28;;;16.85;71.31
80149;BME280;69473;42.426;26.644;2023-05-29T02:55:42;98597.13;;;16.78;72.23
80149;BME280;69473;42.426;26.644;2023-05-29T02:58:08;98604.28;;;16.73;72.18
80149;BME280;69473;42.426;26.644;2023-05-29T03:00:33;98603.19;;;16.80;72.09
80149;BME280;69473;42.426;26.644;2023-05-29T03:03:00;98607.78;;;16.72;73.00
80149;BME280;69473;42.426;26.644;2023-05-29T03:05:25;98609.22;;;16.82;72.51
80149;BME280;69473;42.426;26.644;2023-05-29T03:07:51;98608.22;;;16.87;72.28
80149;BME280;69473;42.426;26.644;2023-05-29T03:10:16;98615.75;;;16.96;71.05
80149;BME280;69473;42.426;26.644;2023-05-29T03:12:43;98618.25;;;16.99;71.71
80149;BME280;69473;42.426;26.644;2023-05-29T03:15:09;98631.69;;;17.13;71.27
80149;BME280;69473;42.426;26.644;2023-05-29T03:17:35;98634.81;;;17.24;70.85
80149;BME280;69473;42.426;26.644;2023-05-29T03:20:02;98635.72;;;17.23;71.20
80149;BME280;69473;42.426;26.644;2023-05-29T03:22:31;98638.97;;;17.30;70.29
80149;BME280;69473;42.426;26.644;2023-05-29T03:24:57;98642.41;;;17.32;69.89
80149;BME280;69473;42.426;26.644;2023-05-29T03:27:23;98641.72;;;17.25;70.11
80149;BME280;69473;42.426;26.644;2023-05-29T03:29:48;98646.81;;;17.30;70.06
80149;BME280;69473;42.426;26.644;2023-05-29T03:32:14;98651.34;;;17.25;70.10
80149;BME280;69473;42.426;26.644;2023-05-29T03:34:39;98653.84;;;17.29;71.32
80149;BME280;69473;42.426;26.644;2023-05-29T03:37:05;98648.69;;;17.26;71.11
80149;BME280;69473;42.426;26.644;2023-05-29T03:39:31;98650.63;;;17.21;71.42
80149;BME280;69473;42.426;26.644;2023-05-29T03:41:56;98656.00;;;17.42;70.24
80149;BME280;69473;42.426;26.644;2023-05-29T03:44:22;98657.84;;;17.38;69.49
80149;BME280;69473;42.426;26.644;2023-05-29T03:46:47;98653.63;;;17.36;69.78
80149;BME280;69473;42.426;26.644;2023-05-29T03:49:13;98651.66;;;17.41;70.25
80149;BME280;69473;42.426;26.644;2023-05-29T03:51:39;98651.00;;;17.36;70.34
80149;BME280;69473;42.426;26.644;2023-05-29T03:54:04;98650.06;;;17.37;70.61
80149;BME280;69473;42.426;26.644;2023-05-29T03:56:30;98654.97;;;17.46;69.68
80149;BME280;69473;42.426;26.644;2023-05-29T03:58:55;98658.19;;;17.54;70.37
80149;BME280;69473;42.426;26.644;2023-05-29T04:01:21;98650.78;;;17.65;69.33
80149;BME280;69473;42.426;26.644;2023-05-29T04:03:46;98648.56;;;17.54;70.34
80149;BME280;69473;42.426;26.644;2023-05-29T04:06:12;98650.78;;;17.65;69.31
80149;BME280;69473;42.426;26.644;2023-05-29T04:08:38;98652.72;;;17.60;69.75
80149;BME280;69473;42.426;26.644;2023-05-29T04:11:04;98643.94;;;17.61;70.43
80149;BME280;69473;42.426;26.644;2023-05-29T04:13:30;98647.25;;;17.66;70.49
80149;BME280;69473;42.426;26.644;2023-05-29T04:15:55;98636.09;;;17.85;69.83
80149;BME280;69473;42.426;26.644;2023-05-29T04:18:21;98647.72;;;18.01;68.83
80149;BME280;69473;42.426;26.644;2023-05-29T04:20:46;98649.31;;;18.05;69.41
80149;BME280;69473;42.426;26.644;2023-05-29T04:23:13;98651.13;;;18.03;68.02
80149;BME280;69473;42.426;26.644;2023-05-29T04:25:38;98651.34;;;17.97;68.22
80149;BME280;69473;42.426;26.644;2023-05-29T04:28:05;98650.13;;;17.84;70.15
80149;BME280;69473;42.426;26.644;2023-05-29T04:30:30;98655.59;;;17.77;69.91
80149;BME280;69473;42.426;26.644;2023-05-29T04:32:59;98639.88;;;17.77;69.82
80149;BME280;69473;42.426;26.644;2023-05-29T04:35:24;98635.28;;;18.06;69.50
80149;BME280;69473;42.426;26.644;2023-05-29T04:37:50;98639.44;;;18.34;67.86
80149;BME280;69473;42.426;26.644;2023-05-29T04:40:15;98644.78;;;18.75;67.44
80149;BME280;69473;42.426;26.644;2023-05-29T04:42:43;98631.50;;;18.57;66.83
80149;BME280;69473;42.426;26.644;2023-05-29T04:45:11;98636.28;;;18.48;67.41
80149;BME280;69473;42.426;26.644;2023-05-29T04:47:37;98641.28;;;18.76;67.58
80149;BME280;69473;42.426;26.644;2023-05-29T04:50:12;98638.56;;;18.55;67.41
80149;BME280;69473;42.426;26.644;2023-05-29T04:52:38;98648.69;;;18.64;67.50
80149;BME280;69473;42.426;26.644;2023-05-29T04:55:04;98648.34;;;18.74;66.36
80149;BME280;69473;42.426;26.644;2023-05-29T04:57:30;98653.47;;;18.77;67.17
80149;BME280;69473;42.426;26.644;2023-05-29T04:59:56;98650.22;;;18.92;66.25
80149;BME280;69473;42.426;26.644;2023-05-29T05:02:22;98648.44;;;19.52;65.43
80149;BME280;69473;42.426;26.644;2023-05-29T05:04:47;98634.88;;;20.20;63.29
80149;BME280;69473;42.426;26.644;2023-05-29T05:07:13;98645.69;;;20.50;62.26
80149;BME280;69473;42.426;26.644;2023-05-29T05:09:44;98643.03;;;20.69;61.95
80149;BME280;69473;42.426;26.644;2023-05-29T05:12:10;98635.22;;;20.85;60.94
80149;BME280;69473;42.426;26.644;2023-05-29T05:14:35;98640.25;;;20.89;60.86
80149;BME280;69473;42.426;26.644;2023-05-29T05:17:01;98632.50;;;21.04;60.70
80149;BME280;69473;42.426;26.644;2023-05-29T05:19:26;98632.50;;;21.04;60.75
80149;BME280;69473;42.426;26.644;2023-05-29T05:21:52;98635.06;;;21.05;61.19
80149;BME280;69473;42.426;26.644;2023-05-29T05:24:17;98626.31;;;21.22;60.04
80149;BME280;69473;42.426;26.644;2023-05-29T05:26:43;98639.75;;;21.33;61.21
80149;BME280;69473;42.426;26.644;2023-05-29T05:29:08;98639.28;;;21.42;59.86
80149;BME280;69473;42.426;26.644;2023-05-29T05:31:34;98643.75;;;21.58;59.85
80149;BME280;69473;42.426;26.644;2023-05-29T05:33:59;98633.34;;;21.72;59.33
80149;BME280;69473;42.426;26.644;2023-05-29T05:36:25;98628.97;;;21.71;60.31
80149;BME280;69473;42.426;26.644;2023-05-29T05:38:51;98633.75;;;21.80;59.98
80149;BME280;69473;42.426;26.644;2023-05-29T05:41:16;98634.66;;;21.97;58.98
80149;BME280;69473;42.426;26.644;2023-05-29T05:43:42;98636.69;;;22.23;58.53
80149;BME280;69473;42.426;26.644;2023-05-29T05:46:07;98635.84;;;22.39;58.00
80149;BME280;69473;42.426;26.644;2023-05-29T05:48:33;98640.94;;;22.42;57.88
80149;BME280;69473;42.426;26.644;2023-05-29T05:50:58;98633.59;;;22.63;57.16
80149;BME280;69473;42.426;26.644;2023-05-29T05:53:24;98638.56;;;22.83;56.54
80149;BME280;69473;42.426;26.644;2023-05-29T05:55:49;98640.00;;;22.89;56.44
80149;BME280;69473;42.426;26.644;2023-05-29T05:58:15;98639.13;;;23.04;55.47
80149;BME280;69473;42.426;26.644;2023-05-29T06:00:40;98642.72;;;23.17;54.67
80149;BME280;69473;42.426;26.644;2023-05-29T06:03:08;98646.16;;;23.34;55.14
80149;BME280;69473;42.426;26.644;2023-05-29T06:05:33;98652.03;;;23.53;53.72
80149;BME280;69473;42.426;26.644;2023-05-29T06:08:01;98661.31;;;23.74;54.04
80149;BME280;69473;42.426;26.644;2023-05-29T06:10:27;98647.13;;;24.46;52.82
80149;BME280;69473;42.426;26.644;2023-05-29T06:12:53;98657.66;;;24.87;50.23
80149;BME280;69473;42.426;26.644;2023-05-29T06:15:18;98657.63;;;25.52;48.98
80149;BME280;69473;42.426;26.644;2023-05-29T06:17:44;98654.13;;;25.90;47.13
80149;BME280;69473;42.426;26.644;2023-05-29T06:20:10;98651.72;;;26.72;45.85
80149;BME280;69473;42.426;26.644;2023-05-29T06:22:39;98650.50;;;26.65;44.33
80149;BME280;69473;42.426;26.644;2023-05-29T06:25:05;98637.91;;;27.15;44.31
80149;BME280;69473;42.426;26.644;2023-05-29T06:27:31;98644.25;;;27.48;42.75
80149;BME280;69473;42.426;26.644;2023-05-29T06:29:57;98650.06;;;27.64;42.54
80149;BME280;69473;42.426;26.644;2023-05-29T06:32:22;98650.72;;;24.72;49.08
80149;BME280;69473;42.426;26.644;2023-05-29T06:34:48;98654.50;;;23.70;51.76
80149;BME280;69473;42.426;26.644;2023-05-29T06:37:13;98654.09;;;23.48;52.90
80149;BME280;69473;42.426;26.644;2023-05-29T06:39:39;98648.59;;;23.22;53.12
80149;BME280;69473;42.426;26.644;2023-05-29T06:42:07;98654.00;;;23.35;53.15
80149;BME280;69473;42.426;26.644;2023-05-29T06:44:33;98652.22;;;23.50;53.53
80149;BME280;69473;42.426;26.644;2023-05-29T06:46:59;98652.78;;;23.41;53.86
80149;BME280;69473;42.426;26.644;2023-05-29T06:49:24;98653.03;;;24.08;51.59
80149;BME280;69473;42.426;26.644;2023-05-29T06:51:50;98643.97;;;26.21;46.26
80149;BME280;69473;42.426;26.644;2023-05-29T06:54:16;98647.13;;;28.23;42.31
80149;BME280;69473;42.426;26.644;2023-05-29T06:56:42;98654.84;;;26.29;45.95
80149;BME280;69473;42.426;26.644;2023-05-29T06:59:07;98650.69;;;25.11;48.72
80149;BME280;69473;42.426;26.644;2023-05-29T07:01:33;98655.25;;;26.12;46.71
80149;BME280;69473;42.426;26.644;2023-05-29T07:03:58;98661.13;;;25.15;48.49
80149;BME280;69473;42.426;26.644;2023-05-29T07:06:24;98658.78;;;26.84;44.90
80149;BME280;69473;42.426;26.644;2023-05-29T07:08:49;98659.72;;;27.54;43.11
80149;BME280;69473;42.426;26.644;2023-05-29T07:11:15;98650.56;;;25.00;47.34
80149;BME280;69473;42.426;26.644;2023-05-29T07:13:40;98653.50;;;23.28;53.28
80149;BME280;69473;42.426;26.644;2023-05-29T07:16:06;98666.66;;;22.54;55.12
80149;BME280;69473;42.426;26.644;2023-05-29T07:18:32;98670.56;;;22.15;56.00
80149;BME280;69473;42.426;26.644;2023-05-29T07:20:59;98673.94;;;22.01;56.67
80149;BME280;69473;42.426;26.644;2023-05-29T07:23:25;98676.44;;;21.71;57.69
80149;BME280;69473;42.426;26.644;2023-05-29T07:25:51;98686.41;;;21.49;58.76
80149;BME280;69473;42.426;26.644;2023-05-29T07:28:16;98682.06;;;21.30;60.22
80149;BME280;69473;42.426;26.644;2023-05-29T07:30:42;98680.09;;;21.35;59.22
80149;BME280;69473;42.426;26.644;2023-05-29T07:33:07;98682.63;;;21.54;59.39
80149;BME280;69473;42.426;26.644;2023-05-29T07:35:33;98679.56;;;21.95;58.39
80149;BME280;69473;42.426;26.644;2023-05-29T07:37:59;98673.09;;;22.64;56.56
80149;BME280;69473;42.426;26.644;2023-05-29T07:40:25;98674.25;;;23.06;54.84
80149;BME280;69473;42.426;26.644;2023-05-29T07:42:51;98671.06;;;23.29;53.81
80149;BME280;69473;42.426;26.644;2023-05-29T07:45:16;98671.88;;;23.46;53.49
80149;BME280;69473;42.426;26.644;2023-05-29T07:47:42;98673.31;;;23.80;52.89
80149;BME280;69473;42.426;26.644;2023-05-29T07:50:08;98664.69;;;24.05;51.89
80149;BME280;69473;42.426;26.644;2023-05-29T07:52:34;98677.34;;;23.86;52.54
80149;BME280;69473;42.426;26.644;2023-05-29T07:55:00;98667.53;;;24.02;52.70
80149;BME280;69473;42.426;26.644;2023-05-29T07:57:27;98678.97;;;23.88;51.25
80149;BME280;69473;42.426;26.644;2023-05-29T07:59:53;98668.97;;;24.49;51.88
80149;BME280;69473;42.426;26.644;2023-05-29T08:02:19;98673.13;;;24.93;49.74
80149;BME280;69473;42.426;26.644;2023-05-29T08:04:46;98674.56;;;25.11;48.97
80149;BME280;69473;42.426;26.644;2023-05-29T08:07:12;98686.38;;;24.93;50.11
80149;BME280;69473;42.426;26.644;2023-05-29T08:09:38;98691.69;;;24.25;51.80
80149;BME280;69473;42.426;26.644;2023-05-29T08:12:03;98687.19;;;23.55;52.86
80149;BME280;69473;42.426;26.644;2023-05-29T08:14:29;98687.72;;;23.46;52.95
80149;BME280;69473;42.426;26.644;2023-05-29T08:16:55;98678.41;;;23.69;52.43
80149;BME280;69473;42.426;26.644;2023-05-29T08:19:20;98681.28;;;23.64;52.44
80149;BME280;69473;42.426;26.644;2023-05-29T08:21:46;98683.53;;;23.42;52.31
80149;BME280;69473;42.426;26.644;2023-05-29T08:24:11;98688.06;;;23.25;53.60
80149;BME280;69473;42.426;26.644;2023-05-29T08:26:37;98685.97;;;23.16;54.09
80149;BME280;69473;42.426;26.644;2023-05-29T08:29:03;98681.22;;;23.07;54.60
80149;BME280;69473;42.426;26.644;2023-05-29T08:31:29;98681.75;;;22.98;54.83
80149;BME280;69473;42.426;26.644;2023-05-29T08:33:55;98678.44;;;22.78;55.71
80149;BME280;69473;42.426;26.644;2023-05-29T08:36:21;98680.78;;;22.69;56.18
80149;BME280;69473;42.426;26.644;2023-05-29T08:38:48;98691.00;;;22.59;57.35
80149;BME280;69473;42.426;26.644;2023-05-29T08:41:25;98682.34;;;22.41;57.63
80149;BME280;69473;42.426;26.644;2023-05-29T08:43:53;98688.97;;;22.32;57.89
80149;BME280;69473;42.426;26.644;2023-05-29T08:46:19;98685.41;;;22.49;57.59
80149;BME280;69473;42.426;26.644;2023-05-29T08:48:52;98683.25;;;22.56;56.27
80149;BME280;69473;42.426;26.644;2023-05-29T08:51:20;98677.84;;;22.73;56.81
80149;BME280;69473;42.426;26.644;2023-05-29T08:53:49;98685.97;;;23.16;55.60
80149;BME280;69473;42.426;26.644;2023-05-29T08:56:16;98687.19;;;23.55;55.09
80149;BME280;69473;42.426;26.644;2023-05-29T08:58:43;98670.69;;;24.63;51.85
80149;BME280;69473;42.426;26.644;2023-05-29T09:01:10;98667.00;;;24.93;51.30
80149;BME280;69473;42.426;26.644;2023-05-29T09:03:36;98678.78;;;24.61;51.67
80149;BME280;69473;42.426;26.644;2023-05-29T09:06:03;98683.78;;;23.82;52.93
80149;BME280;69473;42.426;26.644;2023-05-29T09:08:29;98682.06;;;22.92;56.46
80149;BME280;69473;42.426;26.644;2023-05-29T09:10:55;98685.63;;;22.13;58.93
80149;BME280;69473;42.426;26.644;2023-05-29T09:13:22;98699.13;;;21.91;60.69
80149;BME280;69473;42.426;26.644;2023-05-29T09:15:47;98704.38;;;21.75;62.76
80149;BME280;69473;42.426;26.644;2023-05-29T09:18:16;98700.78;;;21.76;61.79
80149;BME280;69473;42.426;26.644;2023-05-29T09:20:42;98693.00;;;21.90;60.93
80149;BME280;69473;42.426;26.644;2023-05-29T09:23:09;98697.94;;;21.97;59.82
80149;BME280;69473;42.426;26.644;2023-05-29T09:25:40;98689.94;;;21.98;60.01
80149;BME280;69473;42.426;26.644;2023-05-29T09:28:09;98677.00;;;21.94;60.49
80149;BME280;69473;42.426;26.644;2023-05-29T09:30:39;98679.41;;;22.14;59.63
80149;BME280;69473;42.426;26.644;2023-05-29T09:33:07;98678.59;;;22.29;58.92
80149;BME280;69473;42.426;26.644;2023-05-29T09:35:46;98682.69;;;22.19;59.29
80149;BME280;69473;42.426;26.644;2023-05-29T09:38:17;98689.63;;;21.71;61.43
80149;BME280;69473;42.426;26.644;2023-05-29T09:40:43;98689.22;;;21.28;63.84
80149;BME280;69473;42.426;26.644;2023-05-29T09:43:14;98687.97;;;21.18;62.72
80149;BME280;69473;42.426;26.644;2023-05-29T09:45:47;98689.69;;;21.19;62.42
80149;BME280;69473;42.426;26.644;2023-05-29T09:48:15;98694.91;;;21.71;61.00
80149;BME280;69473;42.426;26.644;2023-05-29T09:50:41;98690.63;;;22.02;59.64
80149;BME280;69473;42.426;26.644;2023-05-29T09:55:46;98676.03;;;22.59;57.86
80149;BME280;69473;42.426;26.644;2023-05-29T09:58:14;98676.00;;;22.75;56.13
80149;BME280;69473;42.426;26.644;2023-05-29T10:00:44;98675.28;;;22.88;56.34
80149;BME280;69473;42.426;26.644;2023-05-29T10:03:11;98672.34;;;23.08;55.90
80149;BME280;69473;42.426;26.644;2023-05-29T10:05:40;98667.03;;;23.38;54.34
80149;BME280;69473;42.426;26.644;2023-05-29T10:08:14;98660.13;;;23.36;54.15
80149;BME280;69473;42.426;26.644;2023-05-29T10:10:49;98653.72;;;23.40;52.66
80149;BME280;69473;42.426;26.644;2023-05-29T10:13:22;98648.81;;;23.48;51.77
80149;BME280;69473;42.426;26.644;2023-05-29T10:15:51;98647.88;;;23.49;53.41
80149;BME280;69473;42.426;26.644;2023-05-29T10:18:37;98637.31;;;23.78;52.51
80149;BME280;69473;42.426;26.644;2023-05-29T10:21:04;98647.88;;;23.92;51.82
80149;BME280;69473;42.426;26.644;2023-05-29T10:23:33;98639.66;;;24.24;49.08
80149;BME280;69473;42.426;26.644;2023-05-29T10:26:10;98633.16;;;23.73;49.62
80149;BME280;69473;42.426;26.644;2023-05-29T10:28:41;98633.53;;;23.96;51.67
80149;BME280;69473;42.426;26.644;2023-05-29T10:31:10;98619.72;;;24.32;50.92
80149;BME280;69473;42.426;26.644;2023-05-29T10:36:34;98623.47;;;24.70;47.63
80149;BME280;69473;42.426;26.644;2023-05-29T10:39:01;98624.00;;;24.62;45.05
80149;BME280;69473;42.426;26.644;2023-05-29T10:43:57;98611.69;;;24.34;45.86
80149;BME280;69473;42.426;26.644;2023-05-29T10:49:20;98613.66;;;24.03;48.62
80149;BME280;69473;42.426;26.644;2023-05-29T10:51:47;98607.38;;;24.18;47.16
80149;BME280;69473;42.426;26.644;2023-05-29T10:54:14;98608.53;;;24.14;47.45
80149;BME280;69473;42.426;26.644;2023-05-29T10:56:40;98603.47;;;23.83;47.67
80149;BME280;69473;42.426;26.644;2023-05-29T10:59:08;98617.53;;;23.55;49.53
80149;BME280;69473;42.426;26.644;2023-05-29T11:01:34;98618.63;;;23.81;48.47
80149;BME280;69473;42.426;26.644;2023-05-29T11:06:48;98611.97;;;24.02;49.23
80149;BME280;69473;42.426;26.644;2023-05-29T11:09:36;98611.47;;;23.95;49.49
80149;BME280;69473;42.426;26.644;2023-05-29T11:12:29;98622.00;;;23.68;50.08
80149;BME280;69473;42.426;26.644;2023-05-29T11:15:04;98618.22;;;23.87;50.39
80149;BME280;69473;42.426;26.644;2023-05-29T11:20:07;98623.41;;;24.30;50.55
80149;BME280;69473;42.426;26.644;2023-05-29T11:23:04;98627.16;;;24.40;50.41
80149;BME280;69473;42.426;26.644;2023-05-29T11:25:35;98627.38;;;24.37;48.74
80149;BME280;69473;42.426;26.644;2023-05-29T11:28:01;98622.63;;;24.42;50.94
80149;BME280;69473;42.426;26.644;2023-05-29T11:30:29;98619.41;;;24.37;50.54
80149;BME280;69473;42.426;26.644;2023-05-29T11:33:01;98632.81;;;24.48;50.30
80149;BME280;69473;42.426;26.644;2023-05-29T11:35:34;98623.00;;;24.36;50.97
80149;BME280;69473;42.426;26.644;2023-05-29T11:38:03;98625.28;;;24.42;50.95
80149;BME280;69473;42.426;26.644;2023-05-29T11:40:29;98620.75;;;24.30;49.28
80149;BME280;69473;42.426;26.644;2023-05-29T11:43:00;98624.16;;;24.32;49.73
80149;BME280;69473;42.426;26.644;2023-05-29T11:45:25;98628.16;;;24.25;50.92
80149;BME280;69473;42.426;26.644;2023-05-29T11:48:02;98624.56;;;24.26;49.81
80149;BME280;69473;42.426;26.644;2023-05-29T11:50:30;98624.53;;;24.40;50.82
80149;BME280;69473;42.426;26.644;2023-05-29T11:52:57;98626.59;;;24.35;47.68
80149;BME280;69473;42.426;26.644;2023-05-29T11:55:24;98626.03;;;24.30;48.57
80149;BME280;69473;42.426;26.644;2023-05-29T11:57:56;98628.16;;;24.25;49.33
80149;BME280;69473;42.426;26.644;2023-05-29T12:00:22;98624.25;;;24.45;48.92
80149;BME280;69473;42.426;26.644;2023-05-29T12:02:48;98619.59;;;24.48;48.66
80149;BME280;69473;42.426;26.644;2023-05-29T12:05:16;98618.78;;;24.60;47.34
80149;BME280;69473;42.426;26.644;2023-05-29T12:07:55;98599.97;;;24.24;48.02
80149;BME280;69473;42.426;26.644;2023-05-29T12:10:22;98613.13;;;24.25;50.83
80149;BME280;69473;42.426;26.644;2023-05-29T12:15:15;98627.91;;;24.15;48.91
80149;BME280;69473;42.426;26.644;2023-05-29T12:17:44;98621.03;;;23.98;49.28
80149;BME280;69473;42.426;26.644;2023-05-29T12:20:11;98628.94;;;24.12;49.65
80149;BME280;69473;42.426;26.644;2023-05-29T12:22:38;98629.16;;;24.09;50.35
80149;BME280;69473;42.426;26.644;2023-05-29T12:25:12;98629.84;;;23.84;49.95
80149;BME280;69473;42.426;26.644;2023-05-29T12:27:39;98631.06;;;23.50;50.11
80149;BME280;69473;42.426;26.644;2023-05-29T12:30:20;98640.31;;;23.43;51.46
80149;BME280;69473;42.426;26.644;2023-05-29T12:32:51;98638.50;;;23.29;51.74
80149;BME280;69473;42.426;26.644;2023-05-29T12:35:19;98631.25;;;23.47;51.68
80149;BME280;69473;42.426;26.644;2023-05-29T12:37:54;98634.03;;;24.15;50.68
80149;BME280;69473;42.426;26.644;2023-05-29T12:40:27;98630.38;;;24.45;49.65
80149;BME280;69473;42.426;26.644;2023-05-29T12:42:55;98632.47;;;24.40;48.19
80149;BME280;69473;42.426;26.644;2023-05-29T12:45:26;98639.13;;;24.18;49.34
80149;BME280;69473;42.426;26.644;2023-05-29T12:47:57;98625.94;;;24.04;48.89
80149;BME280;69473;42.426;26.644;2023-05-29T12:50:27;98628.25;;;23.82;49.42
80149;BME280;69473;42.426;26.644;2023-05-29T12:53:10;98621.78;;;23.57;49.52
80149;BME280;69473;42.426;26.644;2023-05-29T12:55:38;98619.91;;;23.31;50.56
80149;BME280;69473;42.426;26.644;2023-05-29T12:58:11;98615.38;;;23.18;50.13
80149;BME280;69473;42.426;26.644;2023-05-29T13:00:39;98617.44;;;23.42;50.57
80149;BME280;69473;42.426;26.644;2023-05-29T13:03:06;98614.06;;;23.68;50.30
80149;BME280;69473;42.426;26.644;2023-05-29T13:05:33;98615.00;;;23.82;49.47
80149;BME280;69473;42.426;26.644;2023-05-29T13:07:59;98614.63;;;23.73;49.88
80149;BME280;69473;42.426;26.644;2023-05-29T13:10:27;98622.00;;;23.83;50.00
80149;BME280;69473;42.426;26.644;2023-05-29T13:12:55;98622.00;;;23.83;49.99
80149;BME280;69473;42.426;26.644;2023-05-29T13:15:24;98622.00;;;23.83;49.78